Southwest, Pennsylvania
Current Conditions -  °F | °C
As of 1:55 AM on Sunday 21 Dec 2014 (Local Time) from KLBE Reporting Station
Overcast Overcast  
Wind Chill: 27°   Ceiling: 2800
Heat Index: 27°   Visibility: 9mi
Dew Point: 25°   Wind: 0mph
Humidity: 93%   Direction: NA
Pressure: 30.27"   Gusts: NA
Location:  40.2°N, 79.52°W
Report Text: KLBE 210655Z AUTO 00000KT 9SM OVC028 M03/M04 A3027 RMK AO2
Loading
Personal Weather Stations






























Interactive Weather Map New forecast layout! Learn more

10-Day Weather Forecast

Advertisements
Track Severe Weather on mobile